Time;durP1;ratioP1;P1;durP2;ratioP2;P2;SDS_P1;SDS_P2;PMS_P1;PMS_P2;Temp;Humidity;BMP_temperature;BMP_pressure;BME280_temperature;BME280_humidity;BME280_pressure;Samples;Min_cycle;Max_cycle;Signal;HPM_P1;HPM_P2
2024/01/04 00:00:03;;;;;;;;;3.00;2.00;;;;;12.04;80.58;100062.13;5080088;28;66506;-65
2024/01/04 00:02:30;;;;;;;;;1.00;1.00;;;;;12.08;80.97;100084.25;5081209;28;45443;-65
2024/01/04 00:04:56;;;;;;;;;3.50;2.00;;;;;12.05;80.27;100087.91;5081468;28;45359;-66
2024/01/04 00:07:21;;;;;;;;;1.50;1.00;;;;;12.03;80.49;100070.22;5081639;28;45235;-65
2024/01/04 00:09:48;;;;;;;;;3.00;1.75;;;;;12.04;80.71;100074.63;5081299;28;51444;-66
2024/01/04 00:12:13;;;;;;;;;1.00;1.00;;;;;12.07;80.58;100093.19;5081221;27;46007;-65
2024/01/04 00:14:39;;;;;;;;;2.00;1.00;;;;;12.00;80.73;100086.44;5054976;28;45715;-66
2024/01/04 00:17:04;;;;;;;;;0.75;0.75;;;;;12.07;80.94;100101.22;5076919;28;57760;-66
2024/01/04 00:19:29;;;;;;;;;0.50;0.00;;;;;12.08;81.04;100104.75;5081957;27;55658;-66
2024/01/04 00:21:54;;;;;;;;;1.00;0.25;;;;;12.07;80.85;100095.88;5084124;27;60325;-66
2024/01/04 00:24:20;;;;;;;;;2.50;0.50;;;;;12.07;80.66;100101.22;5079775;28;65196;-66
2024/01/04 00:26:45;;;;;;;;;3.25;1.00;;;;;11.98;80.69;100097.19;5061513;28;55179;-66
2024/01/04 00:29:10;;;;;;;;;1.75;1.00;;;;;12.03;80.60;100121.91;5080584;28;60545;-66
2024/01/04 00:31:36;;;;;;;;;2.50;1.25;;;;;12.00;80.53;100116.72;5078155;28;45617;-66
2024/01/04 00:34:02;;;;;;;;;1.00;1.00;;;;;12.02;80.36;100112.13;5080705;28;56784;-66
2024/01/04 00:36:27;;;;;;;;;2.25;1.25;;;;;12.03;80.75;100113.88;5081150;28;45406;-66
2024/01/04 00:38:52;;;;;;;;;5.25;1.00;;;;;12.10;80.52;100130.50;5062463;28;54695;-65
2024/01/04 00:41:17;;;;;;;;;0.50;0.25;;;;;11.99;80.50;100116.78;5080634;28;46308;-66
2024/01/04 00:43:43;;;;;;;;;1.50;0.00;;;;;12.03;80.41;100129.09;5070896;28;45336;-66
2024/01/04 00:46:08;;;;;;;;;2.00;0.75;;;;;11.96;80.26;100128.50;5079447;28;59076;-66
2024/01/04 00:48:33;;;;;;;;;4.75;0.50;;;;;11.96;80.19;100138.31;5081115;28;45454;-66
2024/01/04 00:51:01;;;;;;;;;3.25;2.00;;;;;11.97;80.47;100132.91;5090401;27;61477;-65
2024/01/04 00:53:26;;;;;;;;;1.00;1.00;;;;;11.97;80.32;100140.06;5080928;27;45335;-66
2024/01/04 00:55:52;;;;;;;;;2.50;2.00;;;;;11.94;80.16;100141.06;5080671;28;45620;-66
2024/01/04 00:58:17;;;;;;;;;0.00;0.00;;;;;11.92;80.13;100150.13;5080727;28;45253;-66
2024/01/04 01:00:43;;;;;;;;;1.50;0.00;;;;;11.96;80.26;100155.25;5080156;28;60747;-66
2024/01/04 01:03:08;;;;;;;;;3.00;1.00;;;;;11.98;80.42;100157.84;5080542;28;45636;-66
2024/01/04 01:05:34;;;;;;;;;4.00;1.00;;;;;11.94;80.05;100159.78;5080512;28;45918;-66
2024/01/04 01:08:01;;;;;;;;;0.75;0.75;;;;;11.97;80.46;100172.16;5080740;28;45410;-66
2024/01/04 01:10:27;;;;;;;;;4.50;0.00;;;;;11.99;80.20;100181.84;5079587;28;45932;-66
2024/01/04 01:12:53;;;;;;;;;1.00;0.00;;;;;11.96;80.21;100176.66;5079163;28;45637;-66
2024/01/04 01:15:18;;;;;;;;;5.00;1.00;;;;;11.96;80.16;100173.09;5077656;28;45406;-66
2024/01/04 01:17:44;;;;;;;;;2.25;0.50;;;;;11.95;80.30;100182.06;5080518;28;45434;-66
2024/01/04 01:20:09;;;;;;;;;1.00;1.00;;;;;12.00;80.24;100182.72;5087177;27;55941;-66
2024/01/04 01:22:35;;;;;;;;;0.75;0.50;;;;;11.91;80.17;100169.72;5080171;28;45565;-66
2024/01/04 01:25:00;;;;;;;;;2.50;0.75;;;;;11.96;80.48;100184.69;5080502;28;45347;-66
2024/01/04 01:27:25;;;;;;;;;3.25;1.00;;;;;11.95;80.44;100179.41;5079999;28;51242;-66
2024/01/04 01:29:50;;;;;;;;;2.50;0.00;;;;;11.95;80.58;100166.88;5079789;28;46260;-66
2024/01/04 01:32:16;;;;;;;;;4.00;1.75;;;;;11.94;80.39;100173.16;5077676;28;45582;-66
2024/01/04 01:34:42;;;;;;;;;3.25;1.50;;;;;11.90;80.21;100179.56;5070813;28;55839;-66
2024/01/04 01:37:07;;;;;;;;;2.75;1.00;;;;;11.94;80.56;100191.03;5058679;28;45335;-65
2024/01/04 01:39:33;;;;;;;;;0.00;0.00;;;;;11.94;80.33;100177.66;5075018;28;46364;-66
2024/01/04 01:41:58;;;;;;;;;2.75;0.25;;;;;11.87;80.25;100171.69;5075376;28;45331;-66
2024/01/04 01:44:23;;;;;;;;;1.00;1.00;;;;;11.91;80.20;100186.69;5074497;28;45299;-66
2024/01/04 01:46:49;;;;;;;;;1.50;1.00;;;;;11.89;79.49;100195.69;5079671;28;51066;-66
2024/01/04 01:49:14;;;;;;;;;2.50;1.00;;;;;11.91;79.83;100204.50;5079994;27;50259;-66
2024/01/04 01:51:39;;;;;;;;;1.50;1.00;;;;;11.77;79.82;100187.28;5080034;28;45421;-66
2024/01/04 01:54:05;;;;;;;;;0.75;0.00;;;;;11.90;79.90;100211.66;5079497;28;49653;-66
2024/01/04 01:56:31;;;;;;;;;0.00;0.00;;;;;11.92;79.71;100211.63;5079742;28;45374;-66
2024/01/04 01:58:57;;;;;;;;;3.00;1.00;;;;;11.83;79.79;100202.19;5079494;28;45441;-66
2024/01/04 02:01:23;;;;;;;;;0.50;0.00;;;;;11.84;80.08;100203.91;5080111;28;45550;-66
2024/01/04 02:03:49;;;;;;;;;3.25;0.00;;;;;11.90;79.79;100219.69;5079543;28;45382;-66
2024/01/04 02:06:14;;;;;;;;;1.00;0.75;;;;;11.92;80.16;100217.84;5067282;28;45237;-66
2024/01/04 02:08:40;;;;;;;;;2.00;0.00;;;;;11.92;80.03;100222.34;5079657;28;45435;-66
2024/01/04 02:11:05;;;;;;;;;2.50;1.00;;;;;11.92;79.76;100239.22;5079483;28;45274;-66
2024/01/04 02:13:31;;;;;;;;;3.75;1.00;;;;;11.85;80.11;100232.41;5079597;28;45227;-66
2024/01/04 02:15:56;;;;;;;;;1.00;0.00;;;;;11.90;79.91;100242.91;5073415;28;55447;-66
2024/01/04 02:18:21;;;;;;;;;0.00;0.00;;;;;11.88;80.10;100242.97;5060683;28;57693;-66
2024/01/04 02:20:46;;;;;;;;;0.50;0.50;;;;;11.88;79.92;100248.31;5079067;28;45425;-66
2024/01/04 02:23:16;;;;;;;;;2.00;1.00;;;;;11.90;80.04;100258.94;5078228;28;45453;-66
2024/01/04 02:25:42;;;;;;;;;0.00;0.00;;;;;11.84;80.07;100252.94;5079344;28;45581;-66
2024/01/04 02:28:07;;;;;;;;;1.50;0.00;;;;;11.89;79.95;100263.41;5079189;28;45349;-66
2024/01/04 02:30:33;;;;;;;;;1.00;1.00;;;;;11.88;80.20;100264.38;5057740;28;45601;-66
2024/01/04 02:32:58;;;;;;;;;3.00;0.50;;;;;11.86;80.04;100264.44;5076110;28;45370;-65
2024/01/04 02:35:23;;;;;;;;;1.25;1.00;;;;;11.91;79.79;100264.25;5060067;28;45513;-66
2024/01/04 02:37:49;;;;;;;;;3.00;1.50;;;;;11.86;79.48;100258.19;5079124;28;52631;-66
2024/01/04 02:40:14;;;;;;;;;4.75;2.00;;;;;11.85;79.68;100265.34;5079009;27;45500;-65
2024/01/04 02:42:39;;;;;;;;;1.00;1.00;;;;;11.88;79.46;100269.72;5068693;28;45414;-66
2024/01/04 02:45:05;;;;;;;;;1.75;0.50;;;;;11.90;79.35;100280.34;5078719;28;57216;-66
2024/01/04 02:47:31;;;;;;;;;0.25;0.00;;;;;11.90;79.37;100273.19;5078956;28;45991;-66
2024/01/04 02:49:56;;;;;;;;;0.75;0.75;;;;;11.94;79.09;100284.63;5059152;28;45379;-65
2024/01/04 02:52:21;;;;;;;;;1.25;1.00;;;;;11.90;78.45;100286.56;5051516;28;59777;-66
2024/01/04 02:54:47;;;;;;;;;1.00;0.75;;;;;11.89;78.59;100291.97;5078445;28;58275;-66
2024/01/04 02:57:12;;;;;;;;;1.25;0.50;;;;;11.92;78.73;100305.25;5078816;28;46251;-66
2024/01/04 02:59:37;;;;;;;;;4.50;1.00;;;;;11.87;78.53;100292.91;5078734;28;45395;-65
2024/01/04 03:02:03;;;;;;;;;2.75;1.00;;;;;11.83;78.88;100285.09;5078382;28;59031;-66
2024/01/04 03:04:28;;;;;;;;;1.25;0.50;;;;;11.79;78.26;100288.84;5077826;28;45379;-66
2024/01/04 03:06:53;;;;;;;;;0.75;0.75;;;;;11.77;78.68;100288.91;5060678;28;47830;-66
2024/01/04 03:09:19;;;;;;;;;3.25;1.00;;;;;11.87;78.91;100308.09;5074869;28;66647;-66
2024/01/04 03:11:45;;;;;;;;;0.75;0.75;;;;;11.86;79.06;100307.22;5078944;28;45330;-65
2024/01/04 03:14:10;;;;;;;;;1.00;1.00;;;;;11.77;79.08;100285.38;5074279;28;45392;-66
2024/01/04 03:16:36;;;;;;;;;3.00;1.00;;;;;11.92;78.93;100310.59;5071323;28;45628;-66
2024/01/04 03:19:01;;;;;;;;;0.75;0.00;;;;;11.92;78.92;100298.06;5061026;27;45627;-66
2024/01/04 03:21:26;;;;;;;;;2.50;2.00;;;;;11.92;79.18;100300.75;5089768;27;45417;-65
2024/01/04 03:23:52;;;;;;;;;2.25;1.00;;;;;11.97;78.90;100316.59;5060873;28;45593;-66
2024/01/04 03:26:17;;;;;;;;;2.50;0.50;;;;;11.99;78.87;100322.75;5078500;28;46203;-65
2024/01/04 03:28:42;;;;;;;;;3.00;2.00;;;;;11.99;78.90;100331.63;5078376;28;45644;-66
2024/01/04 03:31:08;;;;;;;;;2.00;1.00;;;;;11.90;79.34;100323.13;5076669;28;48696;-65
2024/01/04 03:33:33;;;;;;;;;1.00;1.00;;;;;11.98;79.30;100337.06;5076183;28;51320;-66
2024/01/04 03:35:58;;;;;;;;;1.00;1.00;;;;;11.95;79.27;100332.72;5081999;28;46068;-66
2024/01/04 03:38:24;;;;;;;;;2.00;1.50;;;;;11.84;79.05;100316.25;5063844;28;45415;-65
2024/01/04 03:40:49;;;;;;;;;2.00;1.00;;;;;11.84;79.25;100314.47;5077418;28;45419;-66
2024/01/04 03:43:14;;;;;;;;;5.75;2.00;;;;;11.84;79.15;100316.25;5070003;28;45489;-66
2024/01/04 03:45:40;;;;;;;;;2.00;1.00;;;;;11.91;79.32;100324.84;5082088;28;46427;-66
2024/01/04 03:48:06;;;;;;;;;1.00;1.00;;;;;11.96;79.50;100334.47;5081805;28;45776;-66
2024/01/04 03:50:31;;;;;;;;;1.75;0.00;;;;;11.93;79.59;100331.94;5085512;27;45277;-66
2024/01/04 03:52:56;;;;;;;;;4.50;1.75;;;;;11.90;79.61;100328.50;5080977;28;62814;-66
2024/01/04 03:55:22;;;;;;;;;0.00;0.00;;;;;11.90;79.65;100331.16;5081275;28;60361;-65
2024/01/04 03:57:50;;;;;;;;;0.00;0.00;;;;;11.90;79.41;100331.16;5081227;28;45327;-65
2024/01/04 04:00:16;;;;;;;;;3.00;1.00;;;;;11.92;79.43;100332.84;5081838;28;45533;-65
2024/01/04 04:02:41;;;;;;;;;3.00;1.00;;;;;11.90;79.63;100328.50;5090962;27;45563;-65
2024/01/04 04:05:07;;;;;;;;;0.50;0.00;;;;;11.87;79.62;100327.66;5081076;28;54640;-65
2024/01/04 04:07:32;;;;;;;;;2.00;0.50;;;;;11.89;79.55;100334.75;5081438;28;45363;-66
2024/01/04 04:09:58;;;;;;;;;3.25;0.00;;;;;11.89;79.72;100335.63;5081728;28;45760;-65
2024/01/04 04:12:25;;;;;;;;;1.75;0.75;;;;;11.87;79.54;100337.50;5079353;28;56497;-66
2024/01/04 04:14:51;;;;;;;;;3.00;0.00;;;;;11.92;79.79;100340.88;5071873;28;46041;-66
2024/01/04 04:17:18;;;;;;;;;1.00;1.00;;;;;11.93;79.42;100347.97;5078804;28;45500;-66
2024/01/04 04:19:43;;;;;;;;;0.00;0.00;;;;;11.90;79.41;100345.41;5090591;27;45400;-66
2024/01/04 04:22:09;;;;;;;;;2.00;1.00;;;;;11.91;79.30;100349.84;5083433;27;45844;-65
2024/01/04 04:24:34;;;;;;;;;0.75;0.75;;;;;11.90;79.46;100353.41;5081480;28;46520;-65
2024/01/04 04:26:59;;;;;;;;;5.00;0.50;;;;;11.81;79.26;100344.00;5081080;28;45406;-66
2024/01/04 04:29:25;;;;;;;;;5.00;0.00;;;;;11.90;79.31;100356.09;5059616;28;45386;-66
2024/01/04 04:31:50;;;;;;;;;2.50;0.75;;;;;11.85;79.71;100363.44;5075066;28;63329;-65
2024/01/04 04:34:15;;;;;;;;;0.00;0.00;;;;;11.90;79.37;100360.59;5080304;28;45490;-65
2024/01/04 04:36:40;;;;;;;;;3.00;0.00;;;;;11.91;79.24;100367.66;5080957;28;45513;-66
2024/01/04 04:39:07;;;;;;;;;1.00;1.00;;;;;11.89;79.08;100374.88;5080698;28;56788;-66
2024/01/04 04:41:32;;;;;;;;;1.25;0.50;;;;;11.84;79.37;100364.38;5079421;28;45534;-66
2024/01/04 04:43:58;;;;;;;;;0.50;0.50;;;;;11.85;79.07;100368.81;5071905;28;46295;-66
2024/01/04 04:46:23;;;;;;;;;1.50;0.00;;;;;11.82;79.03;100367.13;5078938;28;66053;-66
2024/01/04 04:48:54;;;;;;;;;0.00;0.00;;;;;11.85;79.26;100371.47;5084363;27;60197;-66
2024/01/04 04:51:20;;;;;;;;;0.50;0.00;;;;;11.82;78.83;100366.25;5082338;27;45625;-66
2024/01/04 04:53:45;;;;;;;;;3.25;2.00;;;;;11.84;78.96;100365.25;5081022;28;45433;-66
2024/01/04 04:56:11;;;;;;;;;4.00;1.00;;;;;11.85;79.08;100368.81;5080466;28;45638;-65
2024/01/04 04:58:36;;;;;;;;;4.50;2.00;;;;;11.86;79.10;100373.19;5058757;28;56966;-66
2024/01/04 05:01:01;;;;;;;;;2.25;0.00;;;;;11.84;79.14;100370.63;5060253;28;66012;-65
2024/01/04 05:03:27;;;;;;;;;1.00;1.00;;;;;11.84;79.23;100384.00;5079600;28;46088;-65
2024/01/04 05:05:52;;;;;;;;;1.25;1.00;;;;;11.83;78.79;100384.06;5080291;28;45323;-66
2024/01/04 05:08:17;;;;;;;;;3.00;1.25;;;;;11.81;78.99;100383.22;5080674;28;45480;-66
2024/01/04 05:10:42;;;;;;;;;1.00;1.00;;;;;11.81;79.22;100380.56;5079576;28;65308;-65
2024/01/04 05:13:08;;;;;;;;;1.25;1.00;;;;;11.79;79.04;100377.06;5079440;28;71717;-65
2024/01/04 05:15:33;;;;;;;;;3.00;2.00;;;;;11.71;78.95;100373.88;5068257;28;45348;-66
2024/01/04 05:17:59;;;;;;;;;3.00;1.50;;;;;11.77;79.31;100395.84;5080582;28;45456;-66
2024/01/04 05:20:24;;;;;;;;;1.75;1.00;;;;;11.75;79.04;100402.22;5080869;27;61909;-65
2024/01/04 05:22:49;;;;;;;;;2.00;1.25;;;;;11.72;79.20;100395.19;5061575;28;64092;-66
2024/01/04 05:25:15;;;;;;;;;1.75;1.00;;;;;11.74;79.32;100406.69;5080056;28;48547;-66
2024/01/04 05:27:40;;;;;;;;;1.00;1.00;;;;;11.74;79.51;100409.34;5080205;28;45404;-66
2024/01/04 05:30:12;;;;;;;;;2.75;2.00;;;;;11.66;79.33;100395.44;5079776;28;53023;-65
2024/01/04 05:32:37;;;;;;;;;3.75;1.00;;;;;11.70;79.25;100410.44;5076140;28;47380;-66
2024/01/04 05:35:04;;;;;;;;;0.00;0.00;;;;;11.67;79.33;100413.25;5078407;28;45498;-65
2024/01/04 05:37:30;;;;;;;;;3.50;1.25;;;;;11.68;79.47;100418.53;5079315;28;45642;-66
2024/01/04 05:39:55;;;;;;;;;1.50;1.00;;;;;11.66;79.23;100412.38;5079414;28;60753;-66
2024/01/04 05:42:20;;;;;;;;;2.75;2.00;;;;;11.64;79.27;100413.34;5053624;28;48261;-66
2024/01/04 05:44:46;;;;;;;;;4.00;0.00;;;;;11.68;79.46;100423.88;5059616;28;45224;-66
2024/01/04 05:47:11;;;;;;;;;2.00;1.50;;;;;11.70;79.52;100417.59;5080083;28;45286;-66
2024/01/04 05:49:37;;;;;;;;;4.50;1.75;;;;;11.66;79.42;100419.50;5079609;28;45389;-66
2024/01/04 05:52:03;;;;;;;;;4.00;0.00;;;;;11.68;79.39;100423.00;5079985;28;45287;-65
2024/01/04 05:54:28;;;;;;;;;5.50;1.00;;;;;11.62;79.25;100412.56;5079734;28;45235;-65
2024/01/04 05:56:54;;;;;;;;;1.00;1.00;;;;;11.57;79.45;100422.56;5079653;28;45467;-66
2024/01/04 05:59:19;;;;;;;;;1.75;1.75;;;;;11.67;79.39;100435.47;5079301;28;53630;-66
2024/01/04 06:01:44;;;;;;;;;1.00;0.25;;;;;11.55;79.46;100419.97;5079768;28;45371;-66
2024/01/04 06:04:09;;;;;;;;;2.00;2.00;;;;;11.63;79.37;100433.03;5059682;28;53215;-66
2024/01/04 06:06:35;;;;;;;;;2.00;1.75;;;;;11.60;79.51;100433.16;5079611;28;52940;-65
2024/01/04 06:09:00;;;;;;;;;2.25;1.00;;;;;11.63;79.07;100441.91;5077753;28;45544;-65
2024/01/04 06:11:25;;;;;;;;;1.00;1.00;;;;;11.62;79.39;100439.28;5079454;28;45487;-66
2024/01/04 06:13:51;;;;;;;;;2.50;2.50;;;;;11.64;79.60;100438.31;5058737;28;58957;-65
2024/01/04 06:16:17;;;;;;;;;1.00;1.00;;;;;11.64;79.43;100440.09;5068822;28;47612;-66
2024/01/04 06:18:43;;;;;;;;;2.00;1.25;;;;;11.57;79.70;100434.13;5079495;27;45565;-66
2024/01/04 06:21:08;;;;;;;;;4.25;2.00;;;;;11.48;79.78;100429.19;5079548;28;45438;-65
2024/01/04 06:23:33;;;;;;;;;3.00;2.00;;;;;11.60;79.72;100446.50;5079255;28;45389;-65
2024/01/04 06:25:59;;;;;;;;;3.50;2.25;;;;;11.51;79.58;100429.06;5078969;28;55023;-66
2024/01/04 06:28:24;;;;;;;;;2.00;1.00;;;;;11.55;79.59;100443.16;5079092;28;45547;-66
2024/01/04 06:30:50;;;;;;;;;4.00;1.00;;;;;11.53;79.74;100437.88;5061014;28;47162;-66
2024/01/04 06:33:17;;;;;;;;;2.00;2.00;;;;;11.54;80.07;100441.41;5074827;28;45485;-66
2024/01/04 06:35:42;;;;;;;;;1.50;0.75;;;;;11.60;79.68;100458.06;5077477;28;45427;-66
2024/01/04 06:38:08;;;;;;;;;2.25;1.00;;;;;11.61;79.76;100459.81;5079637;27;45330;-65
2024/01/04 06:40:37;;;;;;;;;1.00;1.00;;;;;11.57;79.91;100452.84;5079134;28;45871;-65
2024/01/04 06:43:03;;;;;;;;;2.75;1.00;;;;;11.28;79.87;100401.47;5049770;28;45753;-65
2024/01/04 06:45:32;;;;;;;;;3.75;1.50;;;;;11.58;79.84;100464.44;5057828;28;45427;-66
2024/01/04 06:47:57;;;;;;;;;1.25;1.25;;;;;11.59;79.92;100477.72;5076312;28;45479;-66
2024/01/04 06:50:22;;;;;;;;;2.00;1.00;;;;;11.57;79.91;100470.69;5085459;27;45330;-70
2024/01/04 06:52:48;;;;;;;;;3.25;2.75;;;;;11.56;80.36;100477.84;5078206;28;53395;-72
2024/01/04 06:55:14;;;;;;;;;3.75;1.00;;;;;11.44;80.37;100455.16;5073767;27;45336;-75
2024/01/04 06:57:40;;;;;;;;;1.00;1.00;;;;;11.54;80.33;100482.38;5078582;28;45492;-74
2024/01/04 07:00:07;;;;;;;;;2.50;1.50;;;;;11.49;80.67;100477.25;5078915;28;45398;-74
2024/01/04 07:02:35;;;;;;;;;3.25;2.00;;;;;11.53;80.30;100482.44;5078117;28;45791;-74
2024/01/04 07:05:04;;;;;;;;;5.25;2.75;;;;;11.46;80.46;100464.00;5075448;28;45333;-69
2024/01/04 07:07:33;;;;;;;;;2.75;1.00;;;;;11.58;80.53;100481.31;5056710;27;45312;-66
2024/01/04 07:09:59;;;;;;;;;6.00;2.25;;;;;11.57;80.52;100476.91;5061211;27;47182;-66
2024/01/04 07:12:25;;;;;;;;;2.25;1.50;;;;;11.54;80.63;100462.78;5079159;27;51230;-65
2024/01/04 07:14:50;;;;;;;;;1.50;1.50;;;;;11.56;80.25;100476.97;5081282;28;45334;-66
2024/01/04 07:17:16;;;;;;;;;1.00;1.00;;;;;11.44;80.43;100473.00;5082326;28;45463;-66
2024/01/04 07:19:45;;;;;;;;;2.00;2.00;;;;;11.49;80.05;100493.28;5062843;28;48423;-66
2024/01/04 07:22:11;;;;;;;;;3.50;2.25;;;;;11.43;80.77;100489.97;5081951;28;45756;-66
2024/01/04 07:24:37;;;;;;;;;2.00;1.00;;;;;11.43;80.75;100498.84;5081968;28;45446;-66
2024/01/04 07:27:03;;;;;;;;;3.50;1.25;;;;;11.44;80.56;100505.06;5071091;28;45458;-66
2024/01/04 07:29:29;;;;;;;;;2.75;0.50;;;;;11.42;80.71;100499.78;5079719;28;45441;-66
2024/01/04 07:31:55;;;;;;;;;1.50;1.00;;;;;11.44;80.44;100494.38;5082288;28;45568;-66
2024/01/04 07:34:21;;;;;;;;;2.75;1.50;;;;;11.38;80.54;100489.28;5063940;28;45330;-65
2024/01/04 07:36:47;;;;;;;;;4.00;2.00;;;;;11.41;81.03;100492.72;5079756;28;45598;-66
2024/01/04 07:39:13;;;;;;;;;1.75;1.00;;;;;11.41;81.00;100498.06;5081420;28;45505;-65
2024/01/04 07:41:38;;;;;;;;;3.75;1.00;;;;;11.45;80.88;100498.78;5081079;28;45354;-66
2024/01/04 07:44:04;;;;;;;;;2.25;2.00;;;;;11.47;80.90;100500.47;5074813;27;45444;-66
2024/01/04 07:46:30;;;;;;;;;3.00;0.75;;;;;11.43;80.89;100492.66;5077234;28;45326;-66
2024/01/04 07:48:56;;;;;;;;;3.00;1.75;;;;;11.44;81.20;100497.94;5080677;27;45493;-66
2024/01/04 07:51:22;;;;;;;;;7.25;3.75;;;;;11.31;80.61;100476.16;5070442;27;45399;-66
2024/01/04 07:53:47;;;;;;;;;1.25;1.00;;;;;11.43;80.78;100492.66;5078036;27;45399;-66
2024/01/04 07:56:12;;;;;;;;;4.50;4.00;;;;;11.23;81.02;100456.03;5080256;27;45459;-66
2024/01/04 07:58:38;;;;;;;;;1.50;1.50;;;;;11.46;80.42;100493.38;5078902;28;51667;-66
2024/01/04 08:01:03;;;;;;;;;3.75;2.50;;;;;11.35;80.64;100481.38;5077508;28;45892;-66
2024/01/04 08:03:28;;;;;;;;;3.00;2.00;;;;;11.43;80.90;100495.31;5073150;27;49858;-66
2024/01/04 08:05:54;;;;;;;;;4.75;3.25;;;;;11.45;80.79;100498.78;5079292;28;45783;-66
2024/01/04 08:08:20;;;;;;;;;1.50;1.50;;;;;11.43;81.14;100498.84;5079635;28;45939;-66
2024/01/04 08:10:45;;;;;;;;;1.50;1.50;;;;;11.47;80.83;100503.13;5060602;28;45578;-66
2024/01/04 08:13:10;;;;;;;;;5.00;2.00;;;;;11.44;81.14;100505.06;5078873;27;45437;-66
2024/01/04 08:15:37;;;;;;;;;4.50;2.75;;;;;11.46;81.05;100508.53;5079256;27;45486;-66
2024/01/04 08:18:02;;;;;;;;;4.00;2.25;;;;;11.46;81.39;100504.09;5079307;28;46003;-66
2024/01/04 08:20:28;;;;;;;;;2.75;2.00;;;;;11.43;81.16;100492.66;5071485;28;45792;-66
2024/01/04 08:22:53;;;;;;;;;4.75;1.50;;;;;11.45;80.82;100499.66;5075501;28;45639;-66
2024/01/04 08:25:18;;;;;;;;;4.50;2.00;;;;;11.42;81.02;100491.75;5075897;28;45496;-66
2024/01/04 08:27:44;;;;;;;;;3.25;3.25;;;;;11.37;81.34;100493.75;5079123;28;46287;-66
2024/01/04 08:30:10;;;;;;;;;4.50;4.50;;;;;11.36;81.02;100491.13;5077172;28;45358;-66
2024/01/04 08:32:35;;;;;;;;;9.75;4.00;;;;;11.39;81.31;100499.88;5079096;28;45806;-66
2024/01/04 08:35:01;;;;;;;;;4.25;4.00;;;;;11.29;81.40;100486.06;5077972;28;45497;-66
2024/01/04 08:37:26;;;;;;;;;8.50;4.50;;;;;11.34;81.35;100501.88;5079227;28;46224;-66
2024/01/04 08:39:52;;;;;;;;;4.75;2.50;;;;;11.31;81.64;100494.88;5079146;28;45501;-66
2024/01/04 08:42:18;;;;;;;;;4.00;3.00;;;;;11.35;81.60;100495.63;5079368;28;45391;-66
2024/01/04 08:44:44;;;;;;;;;5.00;3.75;;;;;11.30;81.46;100495.78;5087356;27;45412;-66
2024/01/04 08:47:09;;;;;;;;;2.75;2.75;;;;;11.26;81.48;100491.50;5077392;28;45371;-66
2024/01/04 08:49:34;;;;;;;;;6.25;4.50;;;;;11.29;81.57;100503.88;5078843;28;45453;-66
2024/01/04 08:52:00;;;;;;;;;6.00;4.00;;;;;11.27;81.99;100498.56;5078071;28;45603;-66
2024/01/04 08:54:25;;;;;;;;;5.75;3.00;;;;;11.27;81.67;100498.56;5075658;28;63250;-65
2024/01/04 08:56:50;;;;;;;;;3.75;3.00;;;;;11.27;82.18;100501.25;5077975;28;45321;-66
2024/01/04 08:59:15;;;;;;;;;4.00;4.00;;;;;11.23;81.68;100491.63;5078625;28;45453;-66
2024/01/04 09:01:41;;;;;;;;;3.00;3.00;;;;;11.18;81.88;100476.72;5078179;27;49281;-65
2024/01/04 09:04:07;;;;;;;;;4.75;4.00;;;;;11.22;81.95;100484.53;5072875;28;45553;-65
2024/01/04 09:06:33;;;;;;;;;3.75;2.00;;;;;11.31;82.17;100496.69;5069023;28;58848;-66
2024/01/04 09:08:59;;;;;;;;;1.25;1.25;;;;;11.31;82.31;100502.03;5078821;28;45622;-66
2024/01/04 09:11:29;;;;;;;;;3.50;2.00;;;;;11.32;82.32;100495.72;5081852;27;45473;-66
2024/01/04 09:13:54;;;;;;;;;5.50;3.00;;;;;11.34;82.47;100501.88;5076232;28;45497;-66
2024/01/04 09:16:21;;;;;;;;;2.00;2.00;;;;;11.32;82.15;100503.75;5076178;27;46220;-66
2024/01/04 09:18:47;;;;;;;;;5.75;2.75;;;;;11.34;82.71;100507.22;5077913;27;45776;-66
2024/01/04 09:21:12;;;;;;;;;5.75;3.25;;;;;11.33;82.29;100505.50;5059276;28;55286;-66
2024/01/04 09:23:37;;;;;;;;;3.75;1.00;;;;;11.30;82.72;100510.97;5077545;28;59653;-66
2024/01/04 09:26:08;;;;;;;;;4.00;2.00;;;;;11.23;82.65;100490.75;5077724;28;46104;-66
2024/01/04 09:28:34;;;;;;;;;8.00;3.00;;;;;11.27;82.42;100498.56;5078554;28;45433;-65
2024/01/04 09:30:59;;;;;;;;;4.25;4.00;;;;;11.23;82.57;100485.41;5075440;28;45461;-66
2024/01/04 09:33:24;;;;;;;;;4.00;3.00;;;;;11.16;82.59;100479.44;5076484;28;45955;-66
2024/01/04 09:35:50;;;;;;;;;7.50;1.00;;;;;11.29;82.67;100504.75;5077634;28;63078;-65
2024/01/04 09:38:15;;;;;;;;;8.00;3.00;;;;;11.29;83.12;100502.09;5078950;28;45420;-66
2024/01/04 09:40:40;;;;;;;;;4.00;3.00;;;;;11.28;82.98;100492.31;5076082;28;60232;-66
2024/01/04 09:43:08;;;;;;;;;7.50;5.00;;;;;11.36;83.00;100501.81;5077622;28;45568;-65
2024/01/04 09:45:37;;;;;;;;;5.00;5.00;;;;;11.39;83.09;100507.91;5078097;28;46368;-66
2024/01/04 09:48:07;;;;;;;;;7.75;3.00;;;;;11.40;82.74;100503.44;5078948;28;45481;-66
2024/01/04 09:50:34;;;;;;;;;11.25;5.25;;;;;11.39;83.34;100497.22;5078966;27;45403;-66
2024/01/04 09:53:01;;;;;;;;;3.00;3.00;;;;;11.44;83.20;100505.06;5074196;28;45911;-65
2024/01/04 09:55:26;;;;;;;;;5.00;5.00;;;;;11.43;83.52;100503.34;5076997;28;46855;-66
2024/01/04 09:57:52;;;;;;;;;4.75;4.00;;;;;11.44;83.79;100499.72;5076732;28;45670;-66
2024/01/04 10:00:18;;;;;;;;;4.00;1.50;;;;;11.46;83.56;100496.06;5078426;28;45472;-66
2024/01/04 10:02:43;;;;;;;;;6.75;3.00;;;;;11.48;83.98;100491.53;5077492;28;45663;-66
2024/01/04 10:05:14;;;;;;;;;6.25;4.00;;;;;11.44;83.98;100484.56;5077210;28;45401;-66
2024/01/04 10:07:45;;;;;;;;;4.50;2.50;;;;;11.50;83.76;100491.47;5077777;28;45650;-66
2024/01/04 10:10:19;;;;;;;;;3.25;3.25;;;;;11.55;83.99;100493.97;5076503;28;45312;-65
2024/01/04 10:12:46;;;;;;;;;8.50;1.75;;;;;11.55;84.40;100492.13;5076724;28;45736;-66
2024/01/04 10:15:13;;;;;;;;;4.75;2.25;;;;;11.59;84.45;100500.91;5074582;28;45515;-66
2024/01/04 10:17:41;;;;;;;;;6.50;4.00;;;;;11.59;84.80;100499.09;5076508;27;45382;-66
2024/01/04 10:20:08;;;;;;;;;5.00;2.75;;;;;11.60;84.99;100490.16;5077731;28;45430;-66
2024/01/04 10:22:33;;;;;;;;;3.50;2.50;;;;;11.58;84.91;100477.78;5077460;28;45573;-66
2024/01/04 10:25:09;;;;;;;;;8.25;2.75;;;;;11.65;nan;100477.47;5076452;28;46058;-66
2024/01/04 10:27:35;;;;;;;;;6.25;4.00;;;;;11.69;85.03;100475.53;5075608;28;45450;-66
2024/01/04 10:30:05;;;;;;;;;4.25;2.75;;;;;11.73;84.97;100478.94;5059530;28;45491;-66
2024/01/04 10:32:31;;;;;;;;;8.50;4.00;;;;;11.71;85.24;100471.00;5076509;28;45428;-66
2024/01/04 10:35:06;;;;;;;;;5.50;3.50;;;;;11.76;85.28;100477.03;5076089;28;46247;-66
2024/01/04 10:37:33;;;;;;;;;6.00;3.75;;;;;11.76;85.23;100465.44;5071324;28;45431;-66
2024/01/04 10:40:03;;;;;;;;;6.25;4.50;;;;;11.84;84.91;100474.91;5077420;28;45743;-66
2024/01/04 10:42:29;;;;;;;;;6.00;3.00;;;;;11.85;85.20;100471.28;5054633;28;45681;-66
2024/01/04 10:44:55;;;;;;;;;5.75;4.00;;;;;11.79;85.13;100455.50;5074752;27;45410;-66
2024/01/04 10:47:20;;;;;;;;;8.50;4.75;;;;;11.82;85.58;100451.84;5076255;28;45356;-66
2024/01/04 10:49:47;;;;;;;;;5.75;3.00;;;;;11.94;85.29;100466.53;5076125;28;45658;-66
2024/01/04 10:52:17;;;;;;;;;6.00;4.00;;;;;11.92;85.16;100452.34;5077007;28;46803;-66
2024/01/04 10:54:43;;;;;;;;;9.75;4.75;;;;;11.95;85.03;100454.91;5076860;28;46795;-66
2024/01/04 10:57:10;;;;;;;;;10.25;4.00;;;;;11.97;85.08;100448.53;5076757;28;45670;-66
2024/01/04 10:59:36;;;;;;;;;6.50;4.25;;;;;11.94;85.10;100451.34;5077499;28;45430;-66
2024/01/04 11:02:02;;;;;;;;;7.00;3.50;;;;;11.92;85.19;100447.00;5077219;28;45512;-66
2024/01/04 11:04:30;;;;;;;;;9.25;6.25;;;;;11.94;85.22;100450.47;5073888;28;45840;-66
2024/01/04 11:06:57;;;;;;;;;10.50;4.75;;;;;11.93;85.47;100449.63;5076349;28;45608;-66
2024/01/04 11:09:23;;;;;;;;;4.50;4.50;;;;;11.95;85.35;100445.06;5075859;27;45388;-66
2024/01/04 11:11:53;;;;;;;;;8.00;4.00;;;;;11.93;85.58;100435.34;5074365;28;45474;-65
2024/01/04 11:14:22;;;;;;;;;4.25;4.00;;;;;11.76;85.31;100407.50;5076528;28;45847;-66
2024/01/04 11:17:13;;;;;;;;;5.00;4.50;;;;;11.95;85.29;100423.66;5071455;28;45730;-66